Time;durP1;ratioP1;P1;durP2;ratioP2;P2;SDS_P1;SDS_P2;PMS_P1;PMS_P2;Temp;Humidity;BMP_temperature;BMP_pressure;BME280_temperature;BME280_humidity;BME280_pressure;Samples;Min_cycle;Max_cycle;Signal;HPM_P1;HPM_P2
2024/02/11 00:00:27;;;;;;;4.35;3.95;;;;;;;22.01;44.74121;92377.58;;;;
2024/02/11 00:01:28;;;;;;;4.35;3.95;;;;;;;22.01;44.74121;92377.58;;;;
2024/02/11 00:02:28;;;;;;;4.35;3.95;;;;;;;22.01;44.74121;92377.58;;;;
2024/02/11 00:03:29;;;;;;;4.35;3.95;;;;;;;22.01;44.74121;92377.58;;;;
2024/02/11 00:04:31;;;;;;;4.95;3.7;;;;;;;21.95;44.82715;92381.89;;;;
2024/02/11 00:05:31;;;;;;;4.95;3.7;;;;;;;21.95;44.82715;92381.89;;;;
2024/02/11 00:06:32;;;;;;;4.95;3.7;;;;;;;21.95;44.82715;92381.89;;;;
2024/02/11 00:07:32;;;;;;;4.95;3.7;;;;;;;21.95;44.82715;92381.89;;;;
2024/02/11 00:08:38;;;;;;;4.95;3.7;;;;;;;21.95;44.82715;92381.89;;;;
2024/02/11 00:09:38;;;;;;;4.95;3.7;;;;;;;21.95;44.82715;92381.89;;;;
2024/02/11 00:10:39;;;;;;;4.95;3.7;;;;;;;21.95;44.82715;92381.89;;;;
2024/02/11 00:11:39;;;;;;;4.95;3.7;;;;;;;21.95;44.82715;92381.89;;;;
2024/02/11 00:12:40;;;;;;;4.95;3.7;;;;;;;21.95;44.82715;92381.89;;;;
2024/02/11 00:13:41;;;;;;;4.95;3.7;;;;;;;21.95;44.82715;92381.89;;;;
2024/02/11 00:14:42;;;;;;;4.95;3.7;;;;;;;21.95;44.82715;92381.89;;;;
2024/02/11 00:15:43;;;;;;;4.15;3.75;;;;;;;21.89;45.00879;92417.88;;;;
2024/02/11 00:16:45;;;;;;;4.15;3.75;;;;;;;21.89;45.00879;92417.88;;;;
2024/02/11 00:17:46;;;;;;;4.15;3.75;;;;;;;21.89;45.00879;92417.88;;;;
2024/02/11 00:18:48;;;;;;;4.15;3.75;;;;;;;21.89;45.00879;92417.88;;;;
2024/02/11 00:19:49;;;;;;;4.15;3.75;;;;;;;21.89;45.00879;92417.88;;;;
2024/02/11 00:20:49;;;;;;;4.15;3.75;;;;;;;21.89;45.00879;92417.88;;;;
2024/02/11 00:21:50;;;;;;;4.15;3.75;;;;;;;21.89;45.00879;92417.88;;;;
2024/02/11 00:22:50;;;;;;;4.15;3.75;;;;;;;21.89;45.00879;92417.88;;;;
2024/02/11 00:23:50;;;;;;;4.15;3.75;;;;;;;21.89;45.00879;92417.88;;;;
2024/02/11 00:24:51;;;;;;;4.15;3.75;;;;;;;21.89;45.00879;92417.88;;;;
2024/02/11 00:25:53;;;;;;;4;3.6;;;;;;;21.92;44.90039;92424.86;;;;
2024/02/11 00:26:53;;;;;;;4;3.6;;;;;;;21.92;44.90039;92424.86;;;;
2024/02/11 00:27:54;;;;;;;4;3.6;;;;;;;21.92;44.90039;92424.86;;;;
2024/02/11 00:28:57;;;;;;;4;3.6;;;;;;;21.92;44.90039;92424.86;;;;
2024/02/11 00:29:58;;;;;;;4;3.6;;;;;;;21.92;44.90039;92424.86;;;;
2024/02/11 00:31:03;;;;;;;4;3.6;;;;;;;21.92;44.90039;92424.86;;;;
2024/02/11 00:32:04;;;;;;;4;3.6;;;;;;;21.92;44.90039;92424.86;;;;
2024/02/11 00:33:05;;;;;;;4;3.6;;;;;;;21.92;44.90039;92424.86;;;;
2024/02/11 00:34:05;;;;;;;4;3.6;;;;;;;21.92;44.90039;92424.86;;;;
2024/02/11 00:35:06;;;;;;;4;3.6;;;;;;;21.92;44.90039;92424.86;;;;
2024/02/11 00:36:07;;;;;;;4;3.6;;;;;;;21.92;44.90039;92424.86;;;;
2024/02/11 00:37:10;;;;;;;4.149999;3.75;;;;;;;21.92;44.85547;92404.67;;;;
2024/02/11 00:38:13;;;;;;;4.149999;3.75;;;;;;;21.92;44.85547;92404.67;;;;
2024/02/11 00:39:14;;;;;;;4.149999;3.75;;;;;;;21.92;44.85547;92404.67;;;;
2024/02/11 00:40:16;;;;;;;4.149999;3.75;;;;;;;21.92;44.85547;92404.67;;;;
2024/02/11 00:41:17;;;;;;;4.149999;3.75;;;;;;;21.92;44.85547;92404.67;;;;
2024/02/11 00:42:19;;;;;;;4.149999;3.75;;;;;;;21.92;44.85547;92404.67;;;;
2024/02/11 00:43:20;;;;;;;4.149999;3.75;;;;;;;21.92;44.85547;92404.67;;;;
2024/02/11 00:44:20;;;;;;;4.149999;3.75;;;;;;;21.92;44.85547;92404.67;;;;
2024/02/11 00:45:20;;;;;;;4.149999;3.75;;;;;;;21.92;44.85547;92404.67;;;;
2024/02/11 00:46:21;;;;;;;4.149999;3.75;;;;;;;21.92;44.85547;92404.67;;;;
2024/02/11 00:47:22;;;;;;;4.1;3.7;;;;;;;21.93;44.83496;92422;;;;
2024/02/11 00:48:23;;;;;;;4.1;3.7;;;;;;;21.93;44.83496;92422;;;;
2024/02/11 00:49:24;;;;;;;4.1;3.7;;;;;;;21.93;44.83496;92422;;;;
2024/02/11 00:50:24;;;;;;;4.1;3.7;;;;;;;21.93;44.83496;92422;;;;
2024/02/11 00:51:27;;;;;;;4.1;3.7;;;;;;;21.93;44.83496;92422;;;;
2024/02/11 00:52:27;;;;;;;4.1;3.7;;;;;;;21.93;44.83496;92422;;;;
2024/02/11 00:53:28;;;;;;;4.1;3.7;;;;;;;21.93;44.83496;92422;;;;
2024/02/11 00:54:28;;;;;;;4.1;3.7;;;;;;;21.93;44.83496;92422;;;;
2024/02/11 00:55:30;;;;;;;4.1;3.7;;;;;;;21.93;44.83496;92422;;;;
2024/02/11 00:56:31;;;;;;;4.1;3.7;;;;;;;21.93;44.83496;92422;;;;
2024/02/11 00:57:33;;;;;;;4.1;3.7;;;;;;;21.93;44.83496;92422;;;;
2024/02/11 00:58:33;;;;;;;4.099999;3.7;;;;;;;21.93;44.81348;92439.88;;;;
2024/02/11 00:59:34;;;;;;;4.099999;3.7;;;;;;;21.93;44.81348;92439.88;;;;
2024/02/11 01:00:35;;;;;;;4.099999;3.7;;;;;;;21.93;44.81348;92439.88;;;;
2024/02/11 01:01:35;;;;;;;4.099999;3.7;;;;;;;21.93;44.81348;92439.88;;;;
2024/02/11 01:02:36;;;;;;;4.099999;3.7;;;;;;;21.93;44.81348;92439.88;;;;
2024/02/11 01:03:37;;;;;;;4.099999;3.7;;;;;;;21.93;44.81348;92439.88;;;;
2024/02/11 01:04:37;;;;;;;4.099999;3.7;;;;;;;21.93;44.81348;92439.88;;;;
2024/02/11 01:05:38;;;;;;;4.099999;3.7;;;;;;;21.93;44.81348;92439.88;;;;
2024/02/11 01:06:38;;;;;;;4.099999;3.7;;;;;;;21.93;44.81348;92439.88;;;;
2024/02/11 01:07:39;;;;;;;4.099999;3.7;;;;;;;21.93;44.81348;92439.88;;;;
2024/02/11 01:08:40;;;;;;;5.200001;3.5;;;;;;;21.96;44.73828;92460.71;;;;
2024/02/11 01:09:41;;;;;;;5.200001;3.5;;;;;;;21.96;44.73828;92460.71;;;;
2024/02/11 01:10:41;;;;;;;5.200001;3.5;;;;;;;21.96;44.73828;92460.71;;;;
2024/02/11 01:11:42;;;;;;;5.200001;3.5;;;;;;;21.96;44.73828;92460.71;;;;
2024/02/11 01:12:42;;;;;;;5.200001;3.5;;;;;;;21.96;44.73828;92460.71;;;;
2024/02/11 01:13:45;;;;;;;5.200001;3.5;;;;;;;21.96;44.73828;92460.71;;;;
2024/02/11 01:14:46;;;;;;;5.200001;3.5;;;;;;;21.96;44.73828;92460.71;;;;
2024/02/11 01:15:46;;;;;;;5.200001;3.5;;;;;;;21.96;44.73828;92460.71;;;;
2024/02/11 01:16:47;;;;;;;5.200001;3.5;;;;;;;21.96;44.73828;92460.71;;;;
2024/02/11 01:17:48;;;;;;;5.200001;3.5;;;;;;;21.96;44.73828;92460.71;;;;
2024/02/11 01:18:48;;;;;;;5.200001;3.5;;;;;;;21.96;44.73828;92460.71;;;;
2024/02/11 01:19:49;;;;;;;4.05;3.65;;;;;;;21.91;44.81152;92467.14;;;;
2024/02/11 01:20:50;;;;;;;4.05;3.65;;;;;;;21.91;44.81152;92467.14;;;;
2024/02/11 01:21:53;;;;;;;4.05;3.65;;;;;;;21.91;44.81152;92467.14;;;;
2024/02/11 01:22:54;;;;;;;4.05;3.65;;;;;;;21.91;44.81152;92467.14;;;;
2024/02/11 01:23:54;;;;;;;4.05;3.65;;;;;;;21.91;44.81152;92467.14;;;;
2024/02/11 01:24:55;;;;;;;4.05;3.65;;;;;;;21.91;44.81152;92467.14;;;;
2024/02/11 01:25:55;;;;;;;4.05;3.65;;;;;;;21.91;44.81152;92467.14;;;;
2024/02/11 01:26:56;;;;;;;4.05;3.65;;;;;;;21.91;44.81152;92467.14;;;;
2024/02/11 01:27:57;;;;;;;4.05;3.65;;;;;;;21.91;44.81152;92467.14;;;;
2024/02/11 01:28:57;;;;;;;4.05;3.65;;;;;;;21.91;44.81152;92467.14;;;;
2024/02/11 01:29:58;;;;;;;3.55;3.25;;;;;;;21.89;44.85254;92475.72;;;;
2024/02/11 01:30:59;;;;;;;3.55;3.25;;;;;;;21.89;44.85254;92475.72;;;;
2024/02/11 01:32:00;;;;;;;3.55;3.25;;;;;;;21.89;44.85254;92475.72;;;;
2024/02/11 01:33:01;;;;;;;3.55;3.25;;;;;;;21.89;44.85254;92475.72;;;;
2024/02/11 01:34:03;;;;;;;3.55;3.25;;;;;;;21.89;44.85254;92475.72;;;;
2024/02/11 01:35:04;;;;;;;3.55;3.25;;;;;;;21.89;44.85254;92475.72;;;;
2024/02/11 01:36:05;;;;;;;3.55;3.25;;;;;;;21.89;44.85254;92475.72;;;;
2024/02/11 01:37:07;;;;;;;3.55;3.25;;;;;;;21.89;44.85254;92475.72;;;;
2024/02/11 01:38:07;;;;;;;3.55;3.25;;;;;;;21.89;44.85254;92475.72;;;;
2024/02/11 01:39:08;;;;;;;3.55;3.25;;;;;;;21.89;44.85254;92475.72;;;;
2024/02/11 01:40:08;;;;;;;3.55;3.25;;;;;;;21.89;44.85254;92475.72;;;;
2024/02/11 01:41:13;;;;;;;3.400001;3.1;;;;;;;22.05;44.44531;92467.24;;;;
2024/02/11 01:42:13;;;;;;;3.400001;3.1;;;;;;;22.05;44.44531;92467.24;;;;
2024/02/11 01:43:13;;;;;;;3.400001;3.1;;;;;;;22.05;44.44531;92467.24;;;;
2024/02/11 01:44:15;;;;;;;3.400001;3.1;;;;;;;22.05;44.44531;92467.24;;;;
2024/02/11 01:45:17;;;;;;;3.400001;3.1;;;;;;;22.05;44.44531;92467.24;;;;
2024/02/11 01:46:17;;;;;;;3.400001;3.1;;;;;;;22.05;44.44531;92467.24;;;;
2024/02/11 01:47:18;;;;;;;3.400001;3.1;;;;;;;22.05;44.44531;92467.24;;;;
2024/02/11 01:48:18;;;;;;;3.400001;3.1;;;;;;;22.05;44.44531;92467.24;;;;
2024/02/11 01:49:19;;;;;;;3.400001;3.1;;;;;;;22.05;44.44531;92467.24;;;;
2024/02/11 01:50:20;;;;;;;3.400001;3.1;;;;;;;22.05;44.44531;92467.24;;;;
2024/02/11 01:51:21;;;;;;;3.8;3.400001;;;;;;;21.86;44.86133;92511.95;;;;
2024/02/11 01:52:22;;;;;;;3.8;3.400001;;;;;;;21.86;44.86133;92511.95;;;;
2024/02/11 01:53:22;;;;;;;3.8;3.400001;;;;;;;21.86;44.86133;92511.95;;;;
2024/02/11 01:54:25;;;;;;;3.8;3.400001;;;;;;;21.86;44.86133;92511.95;;;;
2024/02/11 01:55:29;;;;;;;3.8;3.400001;;;;;;;21.86;44.86133;92511.95;;;;
2024/02/11 01:56:30;;;;;;;3.8;3.400001;;;;;;;21.86;44.86133;92511.95;;;;
2024/02/11 01:57:32;;;;;;;3.8;3.400001;;;;;;;21.86;44.86133;92511.95;;;;
2024/02/11 01:58:33;;;;;;;3.8;3.400001;;;;;;;21.86;44.86133;92511.95;;;;
2024/02/11 01:59:36;;;;;;;3.8;3.400001;;;;;;;21.86;44.86133;92511.95;;;;
2024/02/11 02:00:37;;;;;;;3.8;3.400001;;;;;;;21.86;44.86133;92511.95;;;;
2024/02/11 02:01:38;;;;;;;3.5;3.2;;;;;;;21.85;44.89355;92508.11;;;;
2024/02/11 02:02:38;;;;;;;3.5;3.2;;;;;;;21.85;44.89355;92508.11;;;;
2024/02/11 02:03:42;;;;;;;3.5;3.2;;;;;;;21.85;44.89355;92508.11;;;;
2024/02/11 02:04:44;;;;;;;3.5;3.2;;;;;;;21.85;44.89355;92508.11;;;;
2024/02/11 02:05:45;;;;;;;3.5;3.2;;;;;;;21.85;44.89355;92508.11;;;;
2024/02/11 02:06:46;;;;;;;3.5;3.2;;;;;;;21.85;44.89355;92508.11;;;;
2024/02/11 02:07:46;;;;;;;3.5;3.2;;;;;;;21.85;44.89355;92508.11;;;;
2024/02/11 02:08:47;;;;;;;3.5;3.2;;;;;;;21.85;44.89355;92508.11;;;;
2024/02/11 02:09:47;;;;;;;3.5;3.2;;;;;;;21.85;44.89355;92508.11;;;;
2024/02/11 02:10:52;;;;;;;3.5;3.2;;;;;;;21.85;44.89355;92508.11;;;;
2024/02/11 02:11:52;;;;;;;3.5;3.2;;;;;;;21.85;44.89355;92508.11;;;;
2024/02/11 02:12:53;;;;;;;3.75;3.45;;;;;;;21.91;44.7334;92504.96;;;;
2024/02/11 02:13:53;;;;;;;3.75;3.45;;;;;;;21.91;44.7334;92504.96;;;;
2024/02/11 02:14:54;;;;;;;3.75;3.45;;;;;;;21.91;44.7334;92504.96;;;;
2024/02/11 02:15:55;;;;;;;3.75;3.45;;;;;;;21.91;44.7334;92504.96;;;;
2024/02/11 02:16:56;;;;;;;3.75;3.45;;;;;;;21.91;44.7334;92504.96;;;;
2024/02/11 02:17:56;;;;;;;3.75;3.45;;;;;;;21.91;44.7334;92504.96;;;;
2024/02/11 02:18:57;;;;;;;3.75;3.45;;;;;;;21.91;44.7334;92504.96;;;;
2024/02/11 02:19:58;;;;;;;3.75;3.45;;;;;;;21.91;44.7334;92504.96;;;;
2024/02/11 02:20:58;;;;;;;3.75;3.45;;;;;;;21.91;44.7334;92504.96;;;;
2024/02/11 02:21:59;;;;;;;3.75;3.45;;;;;;;21.91;44.7334;92504.96;;;;
2024/02/11 02:23:00;;;;;;;3.55;3.25;;;;;;;21.89;44.73047;92516.08;;;;
2024/02/11 02:24:00;;;;;;;3.55;3.25;;;;;;;21.89;44.73047;92516.08;;;;
2024/02/11 02:25:01;;;;;;;3.55;3.25;;;;;;;21.89;44.73047;92516.08;;;;
2024/02/11 02:26:01;;;;;;;3.55;3.25;;;;;;;21.89;44.73047;92516.08;;;;
2024/02/11 02:27:06;;;;;;;3.55;3.25;;;;;;;21.89;44.73047;92516.08;;;;
2024/02/11 02:28:06;;;;;;;3.55;3.25;;;;;;;21.89;44.73047;92516.08;;;;
2024/02/11 02:29:07;;;;;;;3.55;3.25;;;;;;;21.89;44.73047;92516.08;;;;
2024/02/11 02:30:08;;;;;;;3.55;3.25;;;;;;;21.89;44.73047;92516.08;;;;
2024/02/11 02:31:10;;;;;;;3.55;3.25;;;;;;;21.89;44.73047;92516.08;;;;
2024/02/11 02:32:11;;;;;;;3.55;3.25;;;;;;;21.89;44.73047;92516.08;;;;
2024/02/11 02:33:11;;;;;;;3.55;3.25;;;;;;;21.89;44.73047;92516.08;;;;
2024/02/11 02:34:12;;;;;;;3.400001;3.1;;;;;;;21.84;44.81445;92532.08;;;;
2024/02/11 02:35:21;;;;;;;3.400001;3.1;;;;;;;21.84;44.81445;92532.08;;;;
2024/02/11 02:36:22;;;;;;;3.400001;3.1;;;;;;;21.84;44.81445;92532.08;;;;
2024/02/11 02:37:23;;;;;;;3.400001;3.1;;;;;;;21.84;44.81445;92532.08;;;;
2024/02/11 02:38:23;;;;;;;3.400001;3.1;;;;;;;21.84;44.81445;92532.08;;;;
2024/02/11 02:39:24;;;;;;;3.400001;3.1;;;;;;;21.84;44.81445;92532.08;;;;
2024/02/11 02:40:26;;;;;;;3.400001;3.1;;;;;;;21.84;44.81445;92532.08;;;;
2024/02/11 02:41:27;;;;;;;3.400001;3.1;;;;;;;21.84;44.81445;92532.08;;;;
2024/02/11 02:42:27;;;;;;;3.400001;3.1;;;;;;;21.84;44.81445;92532.08;;;;
2024/02/11 02:43:28;;;;;;;3.400001;3.1;;;;;;;21.84;44.81445;92532.08;;;;
2024/02/11 02:44:30;;;;;;;3.6;3.3;;;;;;;21.81;44.88965;92539.11;;;;
2024/02/11 02:45:31;;;;;;;3.6;3.3;;;;;;;21.81;44.88965;92539.11;;;;
2024/02/11 02:46:31;;;;;;;3.6;3.3;;;;;;;21.81;44.88965;92539.11;;;;
2024/02/11 02:47:32;;;;;;;3.6;3.3;;;;;;;21.81;44.88965;92539.11;;;;
2024/02/11 02:48:32;;;;;;;3.6;3.3;;;;;;;21.81;44.88965;92539.11;;;;
2024/02/11 02:49:34;;;;;;;3.6;3.3;;;;;;;21.81;44.88965;92539.11;;;;
2024/02/11 02:50:35;;;;;;;3.6;3.3;;;;;;;21.81;44.88965;92539.11;;;;
2024/02/11 02:51:35;;;;;;;3.6;3.3;;;;;;;21.81;44.88965;92539.11;;;;
2024/02/11 02:52:36;;;;;;;3.6;3.3;;;;;;;21.81;44.88965;92539.11;;;;
2024/02/11 02:53:36;;;;;;;3.6;3.3;;;;;;;21.81;44.88965;92539.11;;;;
2024/02/11 02:54:37;;;;;;;3.6;3.3;;;;;;;21.81;44.88965;92539.11;;;;
2024/02/11 02:55:37;;;;;;;3.3;3.1;;;;;;;21.83;44.87012;92552.84;;;;
2024/02/11 02:56:38;;;;;;;3.3;3.1;;;;;;;21.83;44.87012;92552.84;;;;
2024/02/11 02:57:39;;;;;;;3.3;3.1;;;;;;;21.83;44.87012;92552.84;;;;
2024/02/11 02:58:39;;;;;;;3.3;3.1;;;;;;;21.83;44.87012;92552.84;;;;
2024/02/11 02:59:41;;;;;;;3.3;3.1;;;;;;;21.83;44.87012;92552.84;;;;
2024/02/11 03:00:42;;;;;;;3.3;3.1;;;;;;;21.83;44.87012;92552.84;;;;
2024/02/11 03:01:43;;;;;;;3.3;3.1;;;;;;;21.83;44.87012;92552.84;;;;
2024/02/11 03:02:43;;;;;;;3.3;3.1;;;;;;;21.83;44.87012;92552.84;;;;
2024/02/11 03:03:46;;;;;;;3.3;3.1;;;;;;;21.83;44.87012;92552.84;;;;
2024/02/11 03:04:47;;;;;;;3.3;3.1;;;;;;;21.83;44.87012;92552.84;;;;
2024/02/11 03:05:47;;;;;;;3.2;3;;;;;;;21.84;44.79297;92547.83;;;;
2024/02/11 03:06:48;;;;;;;3.2;3;;;;;;;21.84;44.79297;92547.83;;;;
2024/02/11 03:07:52;;;;;;;3.2;3;;;;;;;21.84;44.79297;92547.83;;;;
2024/02/11 03:08:52;;;;;;;3.2;3;;;;;;;21.84;44.79297;92547.83;;;;
2024/02/11 03:09:53;;;;;;;3.2;3;;;;;;;21.84;44.79297;92547.83;;;;
2024/02/11 03:10:53;;;;;;;3.2;3;;;;;;;21.84;44.79297;92547.83;;;;
2024/02/11 03:11:53;;;;;;;3.2;3;;;;;;;21.84;44.79297;92547.83;;;;
2024/02/11 03:12:54;;;;;;;3.2;3;;;;;;;21.84;44.79297;92547.83;;;;
2024/02/11 03:13:54;;;;;;;3.2;3;;;;;;;21.84;44.79297;92547.83;;;;
2024/02/11 03:14:55;;;;;;;3.2;3;;;;;;;21.84;44.79297;92547.83;;;;
2024/02/11 03:15:58;;;;;;;3.2;3;;;;;;;21.84;44.79297;92547.83;;;;
2024/02/11 03:16:58;;;;;;;3.7;3.05;;;;;;;21.83;44.84766;92561.07;;;;
2024/02/11 03:17:58;;;;;;;3.7;3.05;;;;;;;21.83;44.84766;92561.07;;;;
2024/02/11 03:18:59;;;;;;;3.7;3.05;;;;;;;21.83;44.84766;92561.07;;;;
2024/02/11 03:20:01;;;;;;;3.7;3.05;;;;;;;21.83;44.84766;92561.07;;;;
2024/02/11 03:21:02;;;;;;;3.7;3.05;;;;;;;21.83;44.84766;92561.07;;;;
2024/02/11 03:22:03;;;;;;;3.7;3.05;;;;;;;21.83;44.84766;92561.07;;;;
2024/02/11 03:23:03;;;;;;;3.7;3.05;;;;;;;21.83;44.84766;92561.07;;;;
2024/02/11 03:24:04;;;;;;;3.7;3.05;;;;;;;21.83;44.84766;92561.07;;;;
2024/02/11 03:25:05;;;;;;;3.7;3.05;;;;;;;21.83;44.84766;92561.07;;;;
2024/02/11 03:26:10;;;;;;;3.7;3.05;;;;;;;21.83;44.84766;92561.07;;;;
2024/02/11 03:27:10;;;;;;;3.3;3;;;;;;;21.85;44.72754;92577.46;;;;
2024/02/11 03:28:11;;;;;;;3.3;3;;;;;;;21.85;44.72754;92577.46;;;;
2024/02/11 03:29:12;;;;;;;3.3;3;;;;;;;21.85;44.72754;92577.46;;;;
2024/02/11 03:30:14;;;;;;;3.3;3;;;;;;;21.85;44.72754;92577.46;;;;
2024/02/11 03:31:14;;;;;;;3.3;3;;;;;;;21.85;44.72754;92577.46;;;;
2024/02/11 03:32:15;;;;;;;3.3;3;;;;;;;21.85;44.72754;92577.46;;;;
2024/02/11 03:33:15;;;;;;;3.3;3;;;;;;;21.85;44.72754;92577.46;;;;
2024/02/11 03:34:16;;;;;;;3.3;3;;;;;;;21.85;44.72754;92577.46;;;;
2024/02/11 03:35:16;;;;;;;3.3;3;;;;;;;21.85;44.72754;92577.46;;;;
2024/02/11 03:36:17;;;;;;;3.3;3;;;;;;;21.85;44.72754;92577.46;;;;
2024/02/11 03:37:18;;;;;;;3.3;3;;;;;;;21.85;44.72754;92577.46;;;;
2024/02/11 03:38:19;;;;;;;3.35;3.1;;;;;;;21.85;44.7041;92578.41;;;;
2024/02/11 03:39:19;;;;;;;3.35;3.1;;;;;;;21.85;44.7041;92578.41;;;;
2024/02/11 03:40:20;;;;;;;3.35;3.1;;;;;;;21.85;44.7041;92578.41;;;;
2024/02/11 03:41:22;;;;;;;3.35;3.1;;;;;;;21.85;44.7041;92578.41;;;;
2024/02/11 03:42:23;;;;;;;3.35;3.1;;;;;;;21.85;44.7041;92578.41;;;;
2024/02/11 03:43:23;;;;;;;3.35;3.1;;;;;;;21.85;44.7041;92578.41;;;;
2024/02/11 03:44:24;;;;;;;3.35;3.1;;;;;;;21.85;44.7041;92578.41;;;;
2024/02/11 03:45:25;;;;;;;3.35;3.1;;;;;;;21.85;44.7041;92578.41;;;;
2024/02/11 03:46:25;;;;;;;3.35;3.1;;;;;;;21.85;44.7041;92578.41;;;;
2024/02/11 03:47:27;;;;;;;3.35;3.1;;;;;;;21.85;44.7041;92578.41;;;;
2024/02/11 03:48:28;;;;;;;3.4;3.1;;;;;;;21.86;44.68262;92588.62;;;;
2024/02/11 03:49:28;;;;;;;3.4;3.1;;;;;;;21.86;44.68262;92588.62;;;;
2024/02/11 03:50:29;;;;;;;3.4;3.1;;;;;;;21.86;44.68262;92588.62;;;;
2024/02/11 03:51:29;;;;;;;3.4;3.1;;;;;;;21.86;44.68262;92588.62;;;;
2024/02/11 03:52:34;;;;;;;3.4;3.1;;;;;;;21.86;44.68262;92588.62;;;;
2024/02/11 03:53:35;;;;;;;3.4;3.1;;;;;;;21.86;44.68262;92588.62;;;;
2024/02/11 03:54:38;;;;;;;3.4;3.1;;;;;;;21.86;44.68262;92588.62;;;;
2024/02/11 03:55:38;;;;;;;3.4;3.1;;;;;;;21.86;44.68262;92588.62;;;;
2024/02/11 03:56:39;;;;;;;3.4;3.1;;;;;;;21.86;44.68262;92588.62;;;;
2024/02/11 03:57:40;;;;;;;3.4;3.1;;;;;;;21.86;44.68262;92588.62;;;;
2024/02/11 03:58:42;;;;;;;3.4;3.1;;;;;;;21.86;44.68262;92588.62;;;;
2024/02/11 03:59:42;;;;;;;3.4;3;;;;;;;21.86;44.66113;92602.47;;;;
2024/02/11 04:00:44;;;;;;;3.4;3;;;;;;;21.86;44.66113;92602.47;;;;
2024/02/11 04:01:44;;;;;;;3.4;3;;;;;;;21.86;44.66113;92602.47;;;;
2024/02/11 04:02:45;;;;;;;3.4;3;;;;;;;21.86;44.66113;92602.47;;;;
2024/02/11 04:03:45;;;;;;;3.4;3;;;;;;;21.86;44.66113;92602.47;;;;
2024/02/11 04:04:46;;;;;;;3.4;3;;;;;;;21.86;44.66113;92602.47;;;;
2024/02/11 04:05:48;;;;;;;3.4;3;;;;;;;21.86;44.66113;92602.47;;;;
2024/02/11 04:06:49;;;;;;;3.4;3;;;;;;;21.86;44.66113;92602.47;;;;
2024/02/11 04:07:50;;;;;;;3.4;3;;;;;;;21.86;44.66113;92602.47;;;;
2024/02/11 04:08:51;;;;;;;3.4;3;;;;;;;21.86;44.66113;92602.47;;;;
2024/02/11 04:09:52;;;;;;;3;2.8;;;;;;;21.8;44.79883;92607.89;;;;
2024/02/11 04:10:53;;;;;;;3;2.8;;;;;;;21.8;44.79883;92607.89;;;;
2024/02/11 04:11:54;;;;;;;3;2.8;;;;;;;21.8;44.79883;92607.89;;;;
2024/02/11 04:12:54;;;;;;;3;2.8;;;;;;;21.8;44.79883;92607.89;;;;
2024/02/11 04:13:55;;;;;;;3;2.8;;;;;;;21.8;44.79883;92607.89;;;;
2024/02/11 04:14:58;;;;;;;3;2.8;;;;;;;21.8;44.79883;92607.89;;;;
2024/02/11 04:16:05;;;;;;;3;2.8;;;;;;;21.8;44.79883;92607.89;;;;
2024/02/11 04:17:12;;;;;;;3;2.8;;;;;;;21.8;44.79883;92607.89;;;;
2024/02/11 04:18:12;;;;;;;3;2.8;;;;;;;21.8;44.79883;92607.89;;;;
2024/02/11 04:19:13;;;;;;;3;2.8;;;;;;;21.8;44.79883;92607.89;;;;
2024/02/11 04:20:15;;;;;;;3;2.8;;;;;;;21.8;44.79883;92607.89;;;;
2024/02/11 04:21:19;;;;;;;3.25;2.900001;;;;;;;21.95;44.44824;92621.34;;;;
2024/02/11 04:22:22;;;;;;;3.25;2.900001;;;;;;;21.95;44.44824;92621.34;;;;
2024/02/11 04:23:24;;;;;;;3.25;2.900001;;;;;;;21.95;44.44824;92621.34;;;;
2024/02/11 04:24:28;;;;;;;3.25;2.900001;;;;;;;21.95;44.44824;92621.34;;;;
2024/02/11 04:25:29;;;;;;;3.25;2.900001;;;;;;;21.95;44.44824;92621.34;;;;
2024/02/11 04:26:33;;;;;;;3.25;2.900001;;;;;;;21.95;44.44824;92621.34;;;;
2024/02/11 04:27:36;;;;;;;3.25;2.900001;;;;;;;21.95;44.44824;92621.34;;;;
2024/02/11 04:28:36;;;;;;;3.25;2.900001;;;;;;;21.95;44.44824;92621.34;;;;
2024/02/11 04:29:38;;;;;;;3.25;2.900001;;;;;;;21.95;44.44824;92621.34;;;;
2024/02/11 04:30:38;;;;;;;3.25;2.900001;;;;;;;21.95;44.44824;92621.34;;;;
2024/02/11 04:31:40;;;;;;;3.05;2.85;;;;;;;21.95;44.40234;92631.31;;;;
2024/02/11 04:32:41;;;;;;;3.05;2.85;;;;;;;21.95;44.40234;92631.31;;;;
2024/02/11 04:33:42;;;;;;;3.05;2.85;;;;;;;21.95;44.40234;92631.31;;;;
2024/02/11 04:34:44;;;;;;;3.05;2.85;;;;;;;21.95;44.40234;92631.31;;;;
2024/02/11 04:35:46;;;;;;;3.05;2.85;;;;;;;21.95;44.40234;92631.31;;;;
2024/02/11 04:36:47;;;;;;;3.05;2.85;;;;;;;21.95;44.40234;92631.31;;;;
2024/02/11 04:37:49;;;;;;;3.05;2.85;;;;;;;21.95;44.40234;92631.31;;;;
2024/02/11 04:38:50;;;;;;;3.05;2.85;;;;;;;21.95;44.40234;92631.31;;;;
2024/02/11 04:39:51;;;;;;;3.05;2.85;;;;;;;21.95;44.40234;92631.31;;;;
2024/02/11 04:40:51;;;;;;;3.05;2.85;;;;;;;21.95;44.40234;92631.31;;;;
2024/02/11 04:41:52;;;;;;;2.65;2.45;;;;;;;21.84;44.66992;92676.79;;;;
2024/02/11 04:42:53;;;;;;;2.65;2.45;;;;;;;21.84;44.66992;92676.79;;;;
2024/02/11 04:43:56;;;;;;;2.65;2.45;;;;;;;21.84;44.66992;92676.79;;;;
2024/02/11 04:44:56;;;;;;;2.65;2.45;;;;;;;21.84;44.66992;92676.79;;;;
2024/02/11 04:45:57;;;;;;;2.65;2.45;;;;;;;21.84;44.66992;92676.79;;;;
2024/02/11 04:47:00;;;;;;;2.65;2.45;;;;;;;21.84;44.66992;92676.79;;;;
2024/02/11 04:48:01;;;;;;;2.65;2.45;;;;;;;21.84;44.66992;92676.79;;;;
2024/02/11 04:49:02;;;;;;;2.65;2.45;;;;;;;21.84;44.66992;92676.79;;;;
2024/02/11 04:50:04;;;;;;;2.65;2.45;;;;;;;21.84;44.66992;92676.79;;;;
2024/02/11 04:51:07;;;;;;;2.65;2.45;;;;;;;21.84;44.66992;92676.79;;;;
2024/02/11 04:52:07;;;;;;;2.65;2.45;;;;;;;21.84;44.66992;92676.79;;;;
2024/02/11 04:53:09;;;;;;;3.15;2.85;;;;;;;21.79;44.78809;92693.36;;;;
2024/02/11 04:54:09;;;;;;;3.15;2.85;;;;;;;21.79;44.78809;92693.36;;;;
2024/02/11 04:55:10;;;;;;;3.15;2.85;;;;;;;21.79;44.78809;92693.36;;;;
2024/02/11 04:56:11;;;;;;;3.15;2.85;;;;;;;21.79;44.78809;92693.36;;;;
2024/02/11 04:57:15;;;;;;;3.15;2.85;;;;;;;21.79;44.78809;92693.36;;;;
2024/02/11 04:58:16;;;;;;;3.15;2.85;;;;;;;21.79;44.78809;92693.36;;;;
2024/02/11 04:59:17;;;;;;;3.15;2.85;;;;;;;21.79;44.78809;92693.36;;;;
2024/02/11 05:00:23;;;;;;;3.15;2.85;;;;;;;21.79;44.78809;92693.36;;;;
2024/02/11 05:01:25;;;;;;;3.15;2.85;;;;;;;21.79;44.78809;92693.36;;;;
2024/02/11 05:02:25;;;;;;;3.15;2.85;;;;;;;21.79;44.78809;92693.36;;;;
2024/02/11 05:03:27;;;;;;;3;2.8;;;;;;;21.82;44.66797;92702.84;;;;
2024/02/11 05:04:27;;;;;;;3;2.8;;;;;;;21.82;44.66797;92702.84;;;;
2024/02/11 05:05:28;;;;;;;3;2.8;;;;;;;21.82;44.66797;92702.84;;;;
2024/02/11 05:06:31;;;;;;;3;2.8;;;;;;;21.82;44.66797;92702.84;;;;
2024/02/11 05:07:32;;;;;;;3;2.8;;;;;;;21.82;44.66797;92702.84;;;;
2024/02/11 05:08:33;;;;;;;3;2.8;;;;;;;21.82;44.66797;92702.84;;;;
2024/02/11 05:09:37;;;;;;;3;2.8;;;;;;;21.82;44.66797;92702.84;;;;
2024/02/11 05:10:37;;;;;;;3;2.8;;;;;;;21.82;44.66797;92702.84;;;;
2024/02/11 05:11:39;;;;;;;3;2.8;;;;;;;21.82;44.66797;92702.84;;;;
2024/02/11 05:12:41;;;;;;;3;2.8;;;;;;;21.82;44.66797;92702.84;;;;
2024/02/11 05:13:44;;;;;;;2.85;2.65;;;;;;;21.9;44.48633;92714.59;;;;
2024/02/11 05:14:44;;;;;;;2.85;2.65;;;;;;;21.9;44.48633;92714.59;;;;
2024/02/11 05:15:44;;;;;;;2.85;2.65;;;;;;;21.9;44.48633;92714.59;;;;
2024/02/11 05:16:45;;;;;;;2.85;2.65;;;;;;;21.9;44.48633;92714.59;;;;
2024/02/11 05:17:48;;;;;;;2.85;2.65;;;;;;;21.9;44.48633;92714.59;;;;
2024/02/11 05:18:49;;;;;;;2.85;2.65;;;;;;;21.9;44.48633;92714.59;;;;
2024/02/11 05:19:50;;;;;;;2.85;2.65;;;;;;;21.9;44.48633;92714.59;;;;
2024/02/11 05:20:50;;;;;;;2.85;2.65;;;;;;;21.9;44.48633;92714.59;;;;
2024/02/11 05:21:52;;;;;;;2.85;2.65;;;;;;;21.9;44.48633;92714.59;;;;
2024/02/11 05:22:53;;;;;;;2.85;2.65;;;;;;;21.9;44.48633;92714.59;;;;
2024/02/11 05:23:56;;;;;;;2.85;2.65;;;;;;;21.9;44.48633;92714.59;;;;
2024/02/11 05:24:57;;;;;;;2.95;2.7;;;;;;;21.97;44.31543;92737.64;;;;
2024/02/11 05:25:59;;;;;;;2.95;2.7;;;;;;;21.97;44.31543;92737.64;;;;
2024/02/11 05:26:59;;;;;;;2.95;2.7;;;;;;;21.97;44.31543;92737.64;;;;
2024/02/11 05:28:00;;;;;;;2.95;2.7;;;;;;;21.97;44.31543;92737.64;;;;
2024/02/11 05:29:03;;;;;;;2.95;2.7;;;;;;;21.97;44.31543;92737.64;;;;
2024/02/11 05:30:04;;;;;;;2.95;2.7;;;;;;;21.97;44.31543;92737.64;;;;
2024/02/11 05:31:07;;;;;;;2.95;2.7;;;;;;;21.97;44.31543;92737.64;;;;
2024/02/11 05:32:08;;;;;;;2.95;2.7;;;;;;;21.97;44.31543;92737.64;;;;
2024/02/11 05:33:09;;;;;;;2.95;2.7;;;;;;;21.97;44.31543;92737.64;;;;
2024/02/11 05:34:10;;;;;;;2.95;2.7;;;;;;;21.97;44.31543;92737.64;;;;
2024/02/11 05:35:13;;;;;;;2.8;2.6;;;;;;;21.98;44.26074;92738.82;;;;
2024/02/11 05:36:14;;;;;;;2.8;2.6;;;;;;;21.98;44.26074;92738.82;;;;
2024/02/11 05:37:16;;;;;;;2.8;2.6;;;;;;;21.98;44.26074;92738.82;;;;
2024/02/11 05:38:19;;;;;;;2.8;2.6;;;;;;;21.98;44.26074;92738.82;;;;
2024/02/11 05:39:20;;;;;;;2.8;2.6;;;;;;;21.98;44.26074;92738.82;;;;
2024/02/11 05:40:22;;;;;;;2.8;2.6;;;;;;;21.98;44.26074;92738.82;;;;
2024/02/11 05:41:22;;;;;;;2.8;2.6;;;;;;;21.98;44.26074;92738.82;;;;
2024/02/11 05:42:23;;;;;;;2.8;2.6;;;;;;;21.98;44.26074;92738.82;;;;
2024/02/11 05:43:23;;;;;;;2.8;2.6;;;;;;;21.98;44.26074;92738.82;;;;
2024/02/11 05:44:24;;;;;;;2.8;2.6;;;;;;;21.98;44.26074;92738.82;;;;
2024/02/11 05:45:24;;;;;;;2.8;2.6;;;;;;;21.98;44.26074;92738.82;;;;
2024/02/11 05:46:26;;;;;;;2.55;2.35;;;;;;;21.86;44.48242;92759.84;;;;
2024/02/11 05:47:26;;;;;;;2.55;2.35;;;;;;;21.86;44.48242;92759.84;;;;
2024/02/11 05:48:27;;;;;;;2.55;2.35;;;;;;;21.86;44.48242;92759.84;;;;
2024/02/11 05:49:27;;;;;;;2.55;2.35;;;;;;;21.86;44.48242;92759.84;;;;